Time;durP1;ratioP1;P1;durP2;ratioP2;P2;SDS_P1;SDS_P2;PMS_P1;PMS_P2;Temp;Humidity;BMP_temperature;BMP_pressure;BME280_temperature;BME280_humidity;BME280_pressure;Samples;Min_cycle;Max_cycle;Signal;HPM_P1;HPM_P2
2023/06/02 00:01:47;;;;;;;16.88;4.30;;;;;;;15.77;49.94;102419.56;5092198;28;20130;-44
2023/06/02 00:04:14;;;;;;;10.20;4.10;;;;;;;15.91;49.09;102418.06;5091378;28;20032;-47
2023/06/02 00:06:39;;;;;;;15.40;4.10;;;;;;;15.81;48.89;102414.38;5091255;28;20028;-46
2023/06/02 00:09:05;;;;;;;14.70;3.97;;;;;;;15.62;48.95;102421.91;5091614;28;20025;-48
2023/06/02 00:11:34;;;;;;;13.98;4.47;;;;;;;15.54;49.06;102415.66;5090940;28;20043;-44
2023/06/02 00:13:59;;;;;;;14.13;4.30;;;;;;;15.79;48.95;102416.13;5091330;28;20055;-44
2023/06/02 00:16:25;;;;;;;15.15;3.97;;;;;;;15.90;48.17;102418.91;5091138;28;20490;-50
2023/06/02 00:18:52;;;;;;;14.23;4.28;;;;;;;15.86;48.00;102419.69;5091067;28;20028;-46
2023/06/02 00:21:18;;;;;;;15.50;4.00;;;;;;;15.44;48.56;102417.19;5091153;28;20494;-46
2023/06/02 00:23:44;;;;;;;16.58;3.75;;;;;;;15.46;48.56;102412.84;5092557;28;20032;-45
2023/06/02 00:26:10;;;;;;;12.32;3.90;;;;;;;15.65;47.76;102419.34;5093230;28;20040;-51
2023/06/02 00:28:35;;;;;;;14.50;4.00;;;;;;;15.57;47.82;102416.59;5093043;28;20513;-44
2023/06/02 00:31:00;;;;;;;14.23;3.90;;;;;;;15.61;47.61;102423.69;5093564;28;20031;-45
2023/06/02 00:33:26;;;;;;;12.82;4.20;;;;;;;15.68;47.54;102419.41;5092700;28;20036;-48
2023/06/02 00:35:51;;;;;;;12.50;4.03;;;;;;;15.40;48.05;102418.91;5093398;28;20032;-45
2023/06/02 00:38:16;;;;;;;13.55;4.22;;;;;;;15.17;48.25;102421.97;5092281;28;20028;-49
2023/06/02 00:40:42;;;;;;;14.43;4.43;;;;;;;15.20;47.90;102414.13;5092342;28;20115;-46
2023/06/02 00:43:07;;;;;;;13.57;4.20;;;;;;;15.65;47.24;102425.50;5091325;28;20032;-45
2023/06/02 00:45:32;;;;;;;15.20;4.47;;;;;;;15.34;47.95;102416.16;5091628;28;20115;-48
2023/06/02 00:48:01;;;;;;;13.98;4.28;;;;;;;15.33;47.64;102416.13;5091632;28;20032;-44
2023/06/02 00:50:27;;;;;;;17.63;4.43;;;;;;;15.74;47.21;102414.25;5091761;28;20028;-44
2023/06/02 00:52:57;;;;;;;11.40;4.07;;;;;;;15.75;46.69;102411.66;5091378;28;20032;-44
2023/06/02 00:55:22;;;;;;;17.45;4.30;;;;;;;15.47;47.37;102409.38;5090479;28;20036;-45
2023/06/02 00:57:51;;;;;;;15.32;4.28;;;;;;;15.74;47.07;102412.50;5090625;28;20093;-48
2023/06/02 01:00:18;;;;;;;12.15;4.45;;;;;;;15.69;47.23;102408.91;5090465;28;20043;-47
2023/06/02 01:02:45;;;;;;;13.23;4.32;;;;;;;15.70;47.11;102413.31;5090605;28;20387;-45
2023/06/02 01:05:12;;;;;;;13.15;4.30;;;;;;;15.67;47.35;102420.28;5091029;28;20024;-45
2023/06/02 01:07:44;;;;;;;10.35;4.18;;;;;;;15.69;47.71;102415.91;5089916;28;20098;-47
2023/06/02 01:10:12;;;;;;;9.68;4.10;;;;;;;15.74;47.03;102424.75;5090369;28;20502;-47
2023/06/02 01:12:38;;;;;;;11.75;4.32;;;;;;;15.85;46.86;102415.31;5089750;28;20571;-46
2023/06/02 01:15:04;;;;;;;18.38;4.70;;;;;;;15.71;47.16;102422.97;5090069;28;20036;-45
2023/06/02 01:17:31;;;;;;;16.65;4.50;;;;;;;15.46;48.30;102419.84;5090193;28;20176;-47
2023/06/02 01:20:05;;;;;;;16.65;4.68;;;;;;;15.31;48.37;102423.06;5090224;28;20028;-47
2023/06/02 01:22:39;;;;;;;10.48;4.57;;;;;;;15.34;48.66;102420.53;5090492;28;20040;-49
2023/06/02 01:25:19;;;;;;;13.88;4.88;;;;;;;15.51;48.64;102424.34;5090327;28;20042;-46
2023/06/02 01:27:44;;;;;;;13.80;5.00;;;;;;;15.43;48.20;102423.31;5090830;28;20035;-44
2023/06/02 01:30:10;;;;;;;13.73;4.45;;;;;;;15.27;48.13;102424.78;5090432;28;20024;-46
2023/06/02 01:32:42;;;;;;;9.18;3.78;;;;;;;15.11;48.52;102419.22;5089328;28;20054;-46
2023/06/02 01:35:11;;;;;;;12.60;4.20;;;;;;;15.08;49.00;102421.75;5089904;28;20059;-45
2023/06/02 01:37:43;;;;;;;13.38;3.88;;;;;;;14.93;48.55;102420.63;5089284;28;20507;-48
2023/06/02 01:40:10;;;;;;;15.77;4.00;;;;;;;15.00;48.27;102411.13;5089914;28;20024;-46
2023/06/02 01:42:36;;;;;;;13.60;3.97;;;;;;;15.19;48.36;102414.97;5089596;28;20055;-48
2023/06/02 01:45:03;;;;;;;10.93;3.47;;;;;;;15.42;47.73;102413.69;5089737;28;20077;-45
2023/06/02 01:47:28;;;;;;;14.00;3.88;;;;;;;15.33;48.39;102409.13;5089063;28;20126;-47
2023/06/02 01:49:54;;;;;;;14.65;4.18;;;;;;;15.16;48.66;102412.28;5090171;28;20123;-48
2023/06/02 01:52:19;;;;;;;12.48;4.00;;;;;;;15.13;48.80;102412.22;5089453;28;20039;-44
2023/06/02 01:54:44;;;;;;;12.93;4.32;;;;;;;15.21;49.11;102406.28;5087926;28;20074;-46
2023/06/02 01:57:10;;;;;;;11.75;4.20;;;;;;;15.21;48.57;102405.38;5089630;28;20039;-52
2023/06/02 01:59:36;;;;;;;11.52;4.40;;;;;;;15.41;48.13;102417.16;5089220;28;20052;-45
2023/06/02 02:02:01;;;;;;;12.63;4.15;;;;;;;15.10;48.76;102413.06;5089532;28;20032;-46
2023/06/02 02:04:27;;;;;;;9.68;4.00;;;;;;;15.27;48.20;102410.75;5088599;28;20048;-46
2023/06/02 02:06:52;;;;;;;11.45;3.65;;;;;;;15.00;48.96;102414.59;5089548;28;20031;-50
2023/06/02 02:09:18;;;;;;;10.13;3.72;;;;;;;14.96;49.25;102410.16;5087709;28;20040;-45
2023/06/02 02:11:43;;;;;;;12.07;3.60;;;;;;;15.28;48.49;102416.03;5088246;28;20039;-45
2023/06/02 02:14:08;;;;;;;11.70;3.65;;;;;;;15.34;48.34;102417.91;5089369;28;20513;-52
2023/06/02 02:16:35;;;;;;;7.20;3.08;;;;;;;15.16;48.91;102425.44;5089431;28;20040;-45
2023/06/02 02:19:01;;;;;;;10.93;3.22;;;;;;;15.09;49.15;102419.19;5089624;28;20036;-45
2023/06/02 02:21:26;;;;;;;8.95;3.53;;;;;;;15.09;48.68;102418.28;5089702;28;20329;-46
2023/06/02 02:23:53;;;;;;;9.85;3.28;;;;;;;15.15;48.64;102413.16;5089259;28;20123;-46
2023/06/02 02:26:18;;;;;;;10.25;3.35;;;;;;;15.10;48.74;102417.44;5089365;28;20046;-47
2023/06/02 02:28:44;;;;;;;8.52;2.97;;;;;;;15.19;48.85;102407.97;5089517;28;20418;-47
2023/06/02 02:31:10;;;;;;;9.93;3.42;;;;;;;15.15;49.44;102414.03;5089982;28;20405;-47
2023/06/02 02:33:36;;;;;;;11.13;3.92;;;;;;;15.11;49.15;102412.22;5088792;28;20037;-46
2023/06/02 02:36:01;;;;;;;14.07;4.47;;;;;;;15.15;49.03;102413.16;5089534;28;20064;-44
2023/06/02 02:38:27;;;;;;;13.10;5.55;;;;;;;14.89;49.62;102410.00;5089507;28;20559;-45
2023/06/02 02:40:52;;;;;;;12.02;5.20;;;;;;;14.87;49.40;102402.13;5089318;28;20035;-46
2023/06/02 02:43:18;;;;;;;14.15;5.20;;;;;;;14.74;49.42;102409.72;5088607;28;20096;-45
2023/06/02 02:45:43;;;;;;;13.75;4.80;;;;;;;14.76;49.71;102402.75;5089323;28;20028;-46
2023/06/02 02:48:08;;;;;;;11.40;4.72;;;;;;;15.09;48.93;102405.16;5089179;28;20039;-48
2023/06/02 02:50:33;;;;;;;19.48;4.88;;;;;;;14.89;49.75;102400.38;5088743;28;20032;-45
2023/06/02 02:52:59;;;;;;;12.68;4.28;;;;;;;14.94;49.29;102404.00;5089125;28;20500;-46
2023/06/02 02:55:25;;;;;;;15.32;4.30;;;;;;;14.94;49.67;102403.13;5088707;28;20051;-46
2023/06/02 02:57:51;;;;;;;18.27;4.45;;;;;;;15.13;48.91;102396.47;5088892;28;20028;-46
2023/06/02 03:00:17;;;;;;;11.35;3.67;;;;;;;14.84;50.27;102403.78;5088796;28;20020;-46
2023/06/02 03:02:42;;;;;;;13.68;3.47;;;;;;;15.08;49.75;102399.00;5088736;28;20494;-44
2023/06/02 03:05:08;;;;;;;12.77;3.42;;;;;;;15.06;49.00;102397.22;5089086;28;20050;-47
2023/06/02 03:07:39;;;;;;;9.07;3.22;;;;;;;14.90;49.84;102396.91;5092557;28;20060;-47
2023/06/02 03:10:08;;;;;;;10.40;3.30;;;;;;;15.18;48.92;102397.47;5093169;28;20032;-46
2023/06/02 03:12:33;;;;;;;15.27;3.92;;;;;;;14.97;49.32;102406.69;5092595;28;20032;-47
2023/06/02 03:15:00;;;;;;;11.60;3.03;;;;;;;15.13;48.69;102402.59;5092621;28;20123;-45
2023/06/02 03:17:27;;;;;;;15.13;3.10;;;;;;;15.03;48.89;102403.28;5091878;28;20038;-47
2023/06/02 03:19:54;;;;;;;9.13;3.08;;;;;;;14.90;48.78;102399.53;5092749;28;20028;-46
2023/06/02 03:22:20;;;;;;;13.85;3.67;;;;;;;15.03;48.70;102401.56;5092379;28;20028;-52
2023/06/02 03:24:45;;;;;;;12.90;3.13;;;;;;;15.25;48.16;102394.94;5092805;28;20035;-45
2023/06/02 03:27:13;;;;;;;14.25;3.40;;;;;;;15.17;48.02;102386.06;5093112;28;20079;-45
2023/06/02 03:29:39;;;;;;;13.82;3.70;;;;;;;14.97;48.54;102390.03;5091740;28;20563;-51
2023/06/02 03:32:10;;;;;;;12.35;3.50;;;;;;;15.03;48.64;102392.78;5092245;28;20032;-47
2023/06/02 03:34:35;;;;;;;14.85;3.85;;;;;;;15.16;47.98;102388.66;5091344;28;20032;-44
2023/06/02 03:37:01;;;;;;;12.13;3.60;;;;;;;14.90;48.96;102388.16;5092366;28;20405;-45
2023/06/02 03:39:27;;;;;;;8.93;3.20;;;;;;;15.10;48.43;102391.16;5091895;28;20098;-50
2023/06/02 03:41:52;;;;;;;10.65;3.38;;;;;;;14.98;48.73;102391.81;5092343;28;20490;-46
2023/06/02 03:44:17;;;;;;;13.98;3.45;;;;;;;15.29;48.21;102383.66;5091384;28;20535;-44
2023/06/02 03:46:42;;;;;;;17.00;4.38;;;;;;;15.07;48.69;102391.09;5091960;28;20562;-44
2023/06/02 03:49:08;;;;;;;12.13;3.28;;;;;;;14.95;48.63;102391.75;5092260;28;20111;-44
2023/06/02 03:51:33;;;;;;;11.13;3.33;;;;;;;14.97;48.73;102396.19;5091551;28;20032;-48
2023/06/02 03:53:58;;;;;;;12.57;3.40;;;;;;;14.97;48.43;102392.66;5091518;28;20028;-43
2023/06/02 03:56:25;;;;;;;12.90;3.63;;;;;;;14.68;49.35;102388.59;5091509;28;20040;-50
2023/06/02 03:58:50;;;;;;;10.43;3.45;;;;;;;14.85;48.86;102393.31;5091575;28;20036;-46
2023/06/02 04:01:17;;;;;;;11.50;3.58;;;;;;;14.74;48.98;102396.59;5091554;28;20028;-44
2023/06/02 04:03:42;;;;;;;14.18;3.80;;;;;;;14.77;48.88;102399.25;5091292;28;20097;-48
2023/06/02 04:06:08;;;;;;;14.68;3.83;;;;;;;14.68;49.56;102393.84;5091836;28;20028;-49
2023/06/02 04:08:34;;;;;;;13.25;3.30;;;;;;;14.85;48.84;102401.19;5091033;28;20040;-47
2023/06/02 04:11:00;;;;;;;9.05;3.33;;;;;;;15.18;48.30;102403.59;5091527;28;20062;-48
2023/06/02 04:13:26;;;;;;;12.18;3.50;;;;;;;14.97;48.89;102409.31;5090828;28;20463;-47
2023/06/02 04:15:52;;;;;;;13.98;3.40;;;;;;;15.16;48.38;102401.78;5092972;28;20115;-44
2023/06/02 04:18:17;;;;;;;9.48;3.47;;;;;;;15.23;48.29;102404.56;5092113;28;20055;-48
2023/06/02 04:20:43;;;;;;;11.90;3.35;;;;;;;15.02;48.53;102405.03;5093446;28;20685;-48
2023/06/02 04:23:08;;;;;;;13.65;3.65;;;;;;;15.17;48.30;102406.19;5091258;28;20036;-45
2023/06/02 04:25:34;;;;;;;11.10;3.47;;;;;;;15.34;48.23;102403.00;5091017;28;20110;-47
2023/06/02 04:27:59;;;;;;;10.73;3.33;;;;;;;15.11;47.80;102406.06;5091034;28;20089;-49
2023/06/02 04:30:24;;;;;;;9.40;3.13;;;;;;;15.06;47.87;102413.88;5090443;28;20040;-46
2023/06/02 04:32:50;;;;;;;8.55;3.10;;;;;;;15.24;47.86;102415.97;5090807;28;20123;-47
2023/06/02 04:35:16;;;;;;;14.68;3.50;;;;;;;15.04;48.09;102405.06;5091546;28;20557;-49
2023/06/02 04:37:43;;;;;;;11.15;3.20;;;;;;;14.93;48.08;102404.88;5091074;28;20518;-46
2023/06/02 04:40:10;;;;;;;13.93;3.25;;;;;;;15.05;47.76;102411.22;5091596;28;20054;-47
2023/06/02 04:42:38;;;;;;;12.98;3.40;;;;;;;15.44;47.01;102409.31;5090686;28;20044;-49
2023/06/02 04:45:05;;;;;;;11.13;3.33;;;;;;;15.27;47.28;102410.75;5090557;28;20028;-47
2023/06/02 04:47:31;;;;;;;12.45;3.70;;;;;;;15.26;47.88;102409.88;5090523;28;20119;-45
2023/06/02 04:49:56;;;;;;;13.63;3.83;;;;;;;15.09;48.07;102411.28;5091070;28;20465;-47
2023/06/02 04:52:22;;;;;;;14.85;3.70;;;;;;;15.28;47.70;102407.28;5090654;28;20414;-45
2023/06/02 04:54:48;;;;;;;18.42;3.70;;;;;;;15.39;47.28;102413.59;5090897;28;20122;-46
2023/06/02 04:57:15;;;;;;;15.05;3.50;;;;;;;15.49;47.05;102415.53;5091204;28;20111;-44
2023/06/02 04:59:40;;;;;;;11.25;3.50;;;;;;;15.53;47.10;102409.53;5090377;28;20029;-43
2023/06/02 05:02:05;;;;;;;11.75;3.55;;;;;;;15.51;47.49;102419.06;5090768;28;20039;-47
2023/06/02 05:04:31;;;;;;;14.38;3.53;;;;;;;15.40;47.69;102418.00;5089944;28;20068;-48
2023/06/02 05:06:56;;;;;;;13.70;3.38;;;;;;;15.33;47.70;102417.00;5090699;28;20064;-47
2023/06/02 05:09:21;;;;;;;11.63;3.65;;;;;;;15.43;47.59;102418.94;5090202;28;20028;-44
2023/06/02 05:11:47;;;;;;;17.73;4.13;;;;;;;15.56;47.94;102416.56;5091159;28;20028;-44
2023/06/02 05:14:12;;;;;;;13.23;3.65;;;;;;;15.58;48.22;102417.47;5091539;28;20032;-47
2023/06/02 05:16:43;;;;;;;12.23;4.03;;;;;;;15.50;48.02;102417.31;5092905;28;20032;-51
2023/06/02 05:19:08;;;;;;;11.20;4.07;;;;;;;15.64;47.77;102414.97;5094425;28;20127;-45
2023/06/02 05:21:33;;;;;;;13.40;3.60;;;;;;;15.82;47.70;102413.53;5073773;28;20087;-48
2023/06/02 05:23:59;;;;;;;13.27;3.72;;;;;;;15.66;47.52;102419.41;5091269;28;20032;-47
2023/06/02 05:26:24;;;;;;;16.42;3.85;;;;;;;15.55;47.36;102418.34;5090159;28;20043;-47
2023/06/02 05:28:50;;;;;;;11.68;3.50;;;;;;;15.45;47.57;102416.34;5092056;28;20402;-50
2023/06/02 05:31:16;;;;;;;11.10;3.70;;;;;;;15.71;47.38;102420.34;5095195;28;20577;-51
2023/06/02 05:33:41;;;;;;;11.25;3.53;;;;;;;15.67;47.50;102428.16;5093305;28;20048;-47
2023/06/02 05:36:07;;;;;;;9.95;3.70;;;;;;;15.92;46.54;102422.44;5092334;28;20410;-48
2023/06/02 05:38:32;;;;;;;9.18;3.55;;;;;;;15.83;47.69;102427.56;5089946;28;20032;-48
2023/06/02 05:40:58;;;;;;;16.65;3.88;;;;;;;15.44;47.63;102425.97;5089917;28;20391;-47
2023/06/02 05:43:23;;;;;;;13.73;3.90;;;;;;;15.61;46.89;102428.94;5088772;28;20044;-45
2023/06/02 05:45:48;;;;;;;8.20;3.70;;;;;;;15.80;46.93;102428.38;5089876;28;20475;-46
2023/06/02 05:48:13;;;;;;;15.07;3.60;;;;;;;15.81;46.80;102427.53;5089458;28;20393;-46
2023/06/02 05:50:41;;;;;;;12.80;3.67;;;;;;;15.69;47.07;102434.31;5089224;28;20056;-50
2023/06/02 05:53:06;;;;;;;11.13;3.53;;;;;;;15.87;46.33;102426.75;5089400;28;20082;-45
2023/06/02 05:55:33;;;;;;;12.93;3.15;;;;;;;15.99;46.14;102431.31;5088906;28;20406;-47
2023/06/02 05:57:58;;;;;;;11.73;2.97;;;;;;;15.83;46.07;102428.44;5089255;28;20035;-47
2023/06/02 06:00:24;;;;;;;11.10;3.33;;;;;;;15.90;46.79;102425.91;5089187;28;20036;-46
2023/06/02 06:02:50;;;;;;;13.85;3.60;;;;;;;15.80;46.68;102424.84;5089012;28;20039;-48
2023/06/02 06:05:15;;;;;;;17.05;3.30;;;;;;;14.91;48.37;102419.69;5089413;28;20032;-50
2023/06/02 06:07:41;;;;;;;10.82;3.00;;;;;;;15.48;46.83;102429.56;5089104;28;20537;-47
2023/06/02 06:10:07;;;;;;;15.38;3.63;;;;;;;15.79;46.92;102428.38;5089476;28;20024;-46
2023/06/02 06:12:32;;;;;;;13.18;3.45;;;;;;;15.79;46.86;102420.50;5088977;28;20038;-48
2023/06/02 06:14:57;;;;;;;10.13;3.35;;;;;;;16.28;45.87;102416.88;5089072;28;20115;-46
2023/06/02 06:17:23;;;;;;;9.73;3.15;;;;;;;16.19;46.00;102414.09;5088873;28;20081;-46
2023/06/02 06:19:48;;;;;;;10.73;3.30;;;;;;;16.57;45.59;102414.63;5089416;28;20043;-49
2023/06/02 06:22:13;;;;;;;15.20;3.40;;;;;;;16.43;46.38;102422.34;5090071;28;20032;-46
2023/06/02 06:24:38;;;;;;;11.38;3.22;;;;;;;16.51;45.88;102420.69;5088227;28;20040;-47
2023/06/02 06:27:04;;;;;;;12.13;3.80;;;;;;;16.71;46.02;102417.50;5089088;28;20024;-44
2023/06/02 06:29:29;;;;;;;13.30;3.40;;;;;;;16.71;44.56;102428.88;5088687;28;20102;-45
2023/06/02 06:31:55;;;;;;;14.07;3.28;;;;;;;16.88;44.75;102422.09;5089119;28;20084;-49
2023/06/02 06:34:20;;;;;;;14.25;3.60;;;;;;;16.28;46.19;102430.03;5088720;28;20028;-52
2023/06/02 06:36:47;;;;;;;15.43;3.47;;;;;;;16.63;46.14;102434.06;5089421;28;20032;-45
2023/06/02 06:39:12;;;;;;;14.07;3.60;;;;;;;16.67;45.70;102434.09;5089362;28;20125;-47
2023/06/02 06:41:40;;;;;;;12.20;3.40;;;;;;;16.78;44.76;102428.09;5091529;28;20505;-49
2023/06/02 06:44:05;;;;;;;19.30;3.58;;;;;;;16.62;44.85;102427.03;5092638;28;20040;-51
2023/06/02 06:46:31;;;;;;;12.48;3.38;;;;;;;16.93;44.29;102425.66;5092469;28;20028;-45
2023/06/02 06:48:56;;;;;;;14.68;3.10;;;;;;;16.84;44.42;102427.28;5092844;28;20031;-48
2023/06/02 06:51:21;;;;;;;13.75;3.40;;;;;;;16.70;44.79;102434.16;5092634;28;20032;-44
2023/06/02 06:53:47;;;;;;;17.20;3.30;;;;;;;16.40;45.33;102421.41;5092527;28;20035;-45
2023/06/02 06:56:12;;;;;;;11.70;3.05;;;;;;;16.88;44.21;102423.84;5092802;28;20383;-50
2023/06/02 06:58:37;;;;;;;15.02;3.22;;;;;;;16.19;44.95;102425.50;5091982;28;20036;-48
2023/06/02 07:01:03;;;;;;;11.10;3.17;;;;;;;16.60;45.23;102425.22;5091571;28;20036;-47
2023/06/02 07:03:28;;;;;;;11.90;3.00;;;;;;;16.84;44.18;102422.00;5091705;28;20036;-51
2023/06/02 07:05:53;;;;;;;11.77;3.50;;;;;;;16.96;44.07;102423.03;5092573;28;20115;-48
2023/06/02 07:08:19;;;;;;;14.75;3.15;;;;;;;17.14;43.94;102421.50;5091963;28;20409;-48
2023/06/02 07:10:44;;;;;;;10.00;3.20;;;;;;;17.21;43.76;102429.47;5092434;28;20024;-47
2023/06/02 07:13:09;;;;;;;18.75;4.10;;;;;;;17.38;43.73;102425.25;5092028;28;20027;-48
2023/06/02 07:15:36;;;;;;;15.07;3.55;;;;;;;17.07;44.26;102430.22;5096194;28;20050;-48
2023/06/02 07:18:02;;;;;;;11.75;3.28;;;;;;;16.95;44.26;102429.22;5094524;28;20119;-45
2023/06/02 07:20:27;;;;;;;10.35;2.90;;;;;;;17.27;43.71;102426.03;5093703;28;20046;-50
2023/06/02 07:22:52;;;;;;;12.57;3.25;;;;;;;17.19;43.13;102435.63;5092450;28;20056;-46
2023/06/02 07:25:17;;;;;;;11.18;3.35;;;;;;;17.43;42.86;102430.59;5093505;28;20032;-47
2023/06/02 07:27:43;;;;;;;18.23;3.30;;;;;;;17.47;42.17;102428.88;5092190;28;20036;-49
2023/06/02 07:30:08;;;;;;;15.30;4.22;;;;;;;17.14;43.17;102435.53;5090846;28;20032;-46
2023/06/02 07:32:34;;;;;;;13.93;3.92;;;;;;;17.31;43.35;102430.47;5091816;28;20036;-46
2023/06/02 07:34:59;;;;;;;12.90;3.63;;;;;;;17.95;42.89;102429.31;5091464;28;20081;-46
2023/06/02 07:37:25;;;;;;;15.13;3.55;;;;;;;17.84;43.19;102425.72;5091511;28;20122;-48
2023/06/02 07:39:50;;;;;;;17.83;4.25;;;;;;;17.63;42.71;102431.69;5091834;28;20661;-51
2023/06/02 07:42:15;;;;;;;10.82;3.50;;;;;;;17.20;43.05;102429.50;5092021;28;20457;-46
2023/06/02 07:44:41;;;;;;;12.63;3.33;;;;;;;18.02;42.06;102427.63;5091239;28;20422;-47
2023/06/02 07:47:07;;;;;;;12.93;3.35;;;;;;;18.38;42.77;102421.69;5091927;28;20032;-46
2023/06/02 07:49:33;;;;;;;13.25;4.18;;;;;;;17.96;43.36;102428.47;5089789;28;20032;-50
2023/06/02 07:51:59;;;;;;;13.55;4.00;;;;;;;18.27;42.91;102426.91;5091698;28;20119;-54
2023/06/02 07:54:24;;;;;;;15.98;3.78;;;;;;;17.98;42.85;102429.38;5090581;28;20123;-48
2023/06/02 07:56:50;;;;;;;10.27;3.38;;;;;;;18.32;41.39;102427.81;5091422;28;20032;-45
2023/06/02 07:59:18;;;;;;;14.02;3.70;;;;;;;18.63;40.42;102427.16;5091181;28;20032;-45
2023/06/02 08:01:44;;;;;;;16.80;3.53;;;;;;;18.16;41.86;102431.25;5091714;28;20111;-51
2023/06/02 08:04:09;;;;;;;10.00;3.40;;;;;;;18.58;41.16;102430.66;5091262;28;20059;-45
2023/06/02 08:06:35;;;;;;;10.95;3.67;;;;;;;18.58;40.62;102420.97;5091009;28;20645;-46
2023/06/02 08:09:00;;;;;;;10.63;3.20;;;;;;;18.98;39.93;102427.28;5091336;28;20032;-44
2023/06/02 08:11:26;;;;;;;11.43;3.50;;;;;;;18.69;40.72;102426.31;5090992;28;20032;-51
2023/06/02 08:13:51;;;;;;;14.70;3.40;;;;;;;18.81;40.46;102421.06;5090921;28;20039;-48
2023/06/02 08:16:17;;;;;;;15.63;3.38;;;;;;;19.16;39.38;102423.81;5090869;28;20058;-46
2023/06/02 08:18:42;;;;;;;10.50;2.95;;;;;;;20.15;37.65;102415.97;5091157;28;20036;-49
2023/06/02 08:21:07;;;;;;;9.25;3.10;;;;;;;20.14;36.94;102411.56;5091539;28;20032;-45
2023/06/02 08:23:33;;;;;;;11.68;3.40;;;;;;;19.97;37.86;102416.00;5090170;28;20513;-47
2023/06/02 08:25:59;;;;;;;14.18;3.53;;;;;;;20.17;37.48;102409.81;5091069;28;20077;-51
2023/06/02 08:28:27;;;;;;;12.10;3.28;;;;;;;19.33;39.89;102424.72;5090648;28;20036;-48
2023/06/02 08:30:58;;;;;;;12.18;2.97;;;;;;;19.40;38.75;102425.63;5091436;28;20056;-46
2023/06/02 08:33:24;;;;;;;10.60;3.20;;;;;;;19.57;39.16;102418.66;5090562;28;20032;-44
2023/06/02 08:35:50;;;;;;;17.50;3.65;;;;;;;19.17;39.93;102417.66;5091036;28;20109;-45
2023/06/02 08:38:17;;;;;;;11.68;3.33;;;;;;;19.72;39.15;102410.72;5119656;22;20093;-81
2023/06/02 08:40:47;;;;;;;13.75;3.58;;;;;;;19.50;39.45;102411.59;5095284;28;20485;-82
2023/06/02 08:43:13;;;;;;;12.88;3.38;;;;;;;19.21;39.83;102411.50;5095359;28;20481;-79
2023/06/02 08:49:01;;;;;;;19.33;3.35;;;;;;;19.72;39.67;102412.47;5100704;28;20065;-81
2023/06/02 08:51:26;;;;;;;14.45;3.42;;;;;;;19.76;40.32;102407.16;5108984;28;20036;-79
2023/06/02 08:53:59;;;;;;;12.13;3.28;;;;;;;19.64;40.36;102408.97;5106672;28;20051;-81
2023/06/02 08:56:24;;;;;;;13.20;3.50;;;;;;;19.32;41.18;102409.78;5098336;28;20117;-82
2023/06/02 08:58:53;;;;;;;15.07;3.72;;;;;;;19.42;40.75;102414.19;5097765;28;20036;-82
2023/06/02 09:01:21;;;;;;;17.48;4.22;;;;;;;19.31;40.98;102408.00;5099526;28;20043;-80
2023/06/02 09:03:49;;;;;;;17.80;3.75;;;;;;;19.37;41.46;102404.47;5098486;28;20032;-80
2023/06/02 09:06:28;;;;;;;12.80;3.90;;;;;;;19.22;41.83;102412.38;5100185;28;20055;-80
2023/06/02 09:09:00;;;;;;;13.57;3.72;;;;;;;18.91;42.13;102407.00;5098200;28;20036;-80
2023/06/02 09:11:32;;;;;;;15.00;4.18;;;;;;;19.07;42.23;102415.00;5094849;28;20031;-80
2023/06/02 09:14:16;;;;;;;16.38;3.95;;;;;;;18.57;43.43;102403.34;5099664;28;20032;-82
2023/06/02 09:16:44;;;;;;;11.38;3.55;;;;;;;19.16;42.20;102418.53;5099370;28;20028;-82
2023/06/02 09:19:19;;;;;;;15.05;3.67;;;;;;;18.74;43.34;102413.09;5101413;28;20036;-81
2023/06/02 09:22:13;;;;;;;17.75;4.75;;;;;;;18.34;44.56;102415.53;5099930;28;20036;-80
2023/06/02 09:24:47;;;;;;;14.50;4.00;;;;;;;18.83;44.07;102416.69;5100069;28;20047;-81
2023/06/02 09:27:19;;;;;;;15.50;4.00;;;;;;;19.29;43.09;102417.69;5101081;28;20058;-81
2023/06/02 09:29:46;;;;;;;15.02;4.30;;;;;;;19.23;43.36;102425.59;5102661;28;20552;-80
2023/06/02 09:32:18;;;;;;;16.15;4.15;;;;;;;19.36;42.72;102423.88;5101652;28;20024;-80
2023/06/02 09:34:45;;;;;;;13.18;4.20;;;;;;;19.54;42.61;102426.56;5101387;28;20111;-80
2023/06/02 09:37:15;;;;;;;17.00;4.07;;;;;;;19.53;42.59;102421.28;5102978;28;20040;-81
2023/06/02 09:39:48;;;;;;;15.55;3.90;;;;;;;19.74;42.64;102416.91;5104021;28;20119;-81
2023/06/02 09:42:17;;;;;;;19.48;4.45;;;;;;;19.64;42.40;102414.25;5104310;28;20033;-78
2023/06/02 09:45:12;;;;;;;15.40;4.18;;;;;;;19.79;42.97;102409.84;5103813;28;20028;-80
2023/06/02 09:47:43;;;;;;;19.10;4.30;;;;;;;19.35;43.96;102417.69;5109564;28;20039;-80
2023/06/02 09:50:48;;;;;;;16.08;4.28;;;;;;;19.24;44.00;102427.38;5107401;28;20024;-81
2023/06/02 09:53:18;;;;;;;14.65;4.22;;;;;;;19.48;43.69;102421.28;5103388;28;20024;-79
2023/06/02 09:55:45;;;;;;;16.55;3.80;;;;;;;19.67;43.18;102415.13;5105412;28;20073;-80
2023/06/02 09:58:20;;;;;;;21.65;4.30;;;;;;;19.10;44.48;102421.16;5104510;28;20024;-80
2023/06/02 10:00:52;;;;;;;22.17;5.00;;;;;;;18.85;45.38;102408.75;5106060;28;20463;-81
2023/06/02 10:03:17;;;;;;;13.90;4.55;;;;;;;18.82;46.23;102412.28;5106547;28;20087;-82
2023/06/02 10:06:07;;;;;;;13.70;4.63;;;;;;;19.08;45.01;102407.06;5102071;28;20054;-82
2023/06/02 10:08:54;;;;;;;17.40;4.28;;;;;;;19.75;44.35;102410.72;5105274;28;20028;-80
2023/06/02 10:11:27;;;;;;;14.95;4.60;;;;;;;20.21;42.96;102408.91;5102934;28;20038;-79
2023/06/02 10:14:22;;;;;;;14.30;4.40;;;;;;;20.79;42.67;102411.41;5105900;28;20024;-81
2023/06/02 10:17:05;;;;;;;15.35;4.82;;;;;;;20.42;42.33;102397.41;5112623;28;20039;-78
2023/06/02 10:19:45;;;;;;;15.85;4.40;;;;;;;20.02;43.13;102399.22;5116233;28;20036;-81
2023/06/02 10:22:39;;;;;;;12.65;4.60;;;;;;;20.54;42.30;102392.06;5117803;28;20029;-81
2023/06/02 10:25:15;;;;;;;16.27;4.72;;;;;;;20.37;42.82;102404.47;5116684;28;20036;-79
2023/06/02 10:27:47;;;;;;;14.45;4.90;;;;;;;20.38;42.12;102406.22;5117129;28;20040;-80
2023/06/02 10:30:18;;;;;;;17.33;4.93;;;;;;;20.37;43.01;102407.13;5119476;28;20032;-79
2023/06/02 10:32:47;;;;;;;15.57;4.50;;;;;;;20.79;41.76;102407.88;5119177;28;20043;-78
2023/06/02 10:35:14;;;;;;;14.77;4.50;;;;;;;20.87;41.58;102404.28;5120497;28;20020;-80
2023/06/02 10:37:40;;;;;;;15.82;5.03;;;;;;;20.50;42.35;102405.31;5119406;28;20038;-79
2023/06/02 10:40:09;;;;;;;16.35;5.15;;;;;;;20.22;42.54;102401.84;5120657;28;20016;-78
2023/06/02 10:42:34;;;;;;;15.35;5.05;;;;;;;20.47;42.88;102392.97;5120163;28;20024;-79
2023/06/02 10:45:18;;;;;;;15.65;5.03;;;;;;;20.20;42.73;102401.84;5119778;28;20038;-79
2023/06/02 10:47:47;;;;;;;16.90;4.93;;;;;;;20.22;42.79;102404.47;5120684;28;20084;-79
2023/06/02 10:50:23;;;;;;;17.48;5.00;;;;;;;19.85;43.82;102401.88;5120455;28;20059;-80
2023/06/02 10:53:00;;;;;;;14.68;4.88;;;;;;;20.51;42.83;102404.44;5120211;28;20050;-80
2023/06/02 10:55:26;;;;;;;14.70;5.00;;;;;;;20.88;42.49;102399.84;5120614;28;20028;-82
2023/06/02 10:58:12;;;;;;;18.83;4.82;;;;;;;21.40;41.04;102403.13;5117824;28;20127;-82
2023/06/02 11:00:46;;;;;;;19.23;4.80;;;;;;;21.54;40.99;102403.88;5115702;28;20043;-81
2023/06/02 11:03:20;;;;;;;13.95;4.55;;;;;;;21.27;41.07;102398.78;5115547;28;20036;-80
2023/06/02 11:06:20;;;;;;;19.60;4.97;;;;;;;20.95;41.64;102402.47;5109350;28;20044;-80
2023/06/02 11:09:36;;;;;;;14.43;4.40;;;;;;;21.37;41.33;102392.53;5098073;28;20620;-81
2023/06/02 11:12:01;;;;;;;12.00;4.10;;;;;;;22.11;40.76;102399.88;5098098;28;20028;-80
2023/06/02 11:15:02;;;;;;;17.20;5.22;;;;;;;21.04;42.13;102398.91;5096146;28;20733;-81
2023/06/02 11:17:34;;;;;;;12.65;4.43;;;;;;;21.31;41.28;102395.22;5096502;28;20044;-80
2023/06/02 11:20:01;;;;;;;14.60;4.90;;;;;;;21.89;41.45;102408.94;5098737;28;20139;-82
2023/06/02 11:22:27;;;;;;;13.73;4.50;;;;;;;21.50;40.84;102402.16;5096840;28;20458;-82
2023/06/02 11:24:56;;;;;;;16.02;4.47;;;;;;;22.16;40.33;102399.81;5105191;28;20028;-82